createdAt,value
2018-05-31T00:01:48.806Z,78.40
2018-05-31T00:04:16.418Z,78.70
2018-05-31T00:06:44.053Z,78.90
2018-05-31T00:09:11.682Z,78.80
2018-05-31T00:11:39.307Z,79.20
2018-05-31T00:14:07.000Z,79.50
2018-05-31T00:16:34.630Z,79.30
2018-05-31T00:19:02.243Z,79.30
2018-05-31T00:21:30.670Z,79.30
2018-05-31T00:23:58.296Z,79.30
2018-05-31T00:26:26.668Z,79.40
2018-05-31T00:28:54.311Z,79.40
2018-05-31T00:31:21.903Z,79.40
2018-05-31T00:33:50.283Z,79.70
2018-05-31T00:36:17.926Z,79.60
2018-05-31T00:38:45.548Z,80.00
2018-05-31T00:41:13.913Z,80.30
2018-05-31T00:43:42.315Z,80.40
2018-05-31T00:46:09.962Z,80.40
2018-05-31T00:48:38.345Z,80.70
2018-05-31T00:51:06.782Z,81.10
2018-05-31T00:53:34.432Z,81.10
2018-05-31T00:56:16.655Z,81.40
2018-05-31T00:58:44.288Z,81.40
2018-05-31T01:01:11.908Z,81.40
2018-05-31T01:03:39.582Z,81.50
2018-05-31T01:06:07.217Z,81.60
2018-05-31T01:08:34.839Z,81.70
2018-05-31T01:11:02.488Z,81.90
2018-05-31T01:13:30.870Z,82.00
2018-05-31T01:15:58.481Z,82.00
2018-05-31T01:18:26.132Z,82.50
2018-05-31T01:20:53.747Z,83.90
2018-05-31T01:23:21.368Z,84.40
2018-05-31T01:25:49.007Z,83.60
2018-05-31T01:28:17.886Z,83.60
2018-05-31T01:30:45.497Z,83.50
2018-05-31T01:33:13.147Z,83.40
2018-05-31T01:35:40.755Z,83.40
2018-05-31T01:38:20.066Z,84.20
2018-05-31T01:40:47.678Z,83.90
2018-05-31T01:43:15.274Z,83.70
2018-05-31T01:45:42.934Z,83.70
2018-05-31T01:48:10.551Z,83.70
2018-05-31T01:50:38.174Z,83.60
2018-05-31T01:53:05.805Z,83.40
2018-05-31T01:55:33.423Z,83.60
2018-05-31T01:58:01.047Z,83.60
2018-05-31T02:00:29.606Z,84.40
2018-05-31T02:02:57.246Z,84.40
2018-05-31T02:05:24.847Z,84.40
2018-05-31T02:07:52.506Z,84.50
2018-05-31T02:10:20.129Z,84.70
2018-05-31T02:12:47.743Z,84.80
2018-05-31T02:15:15.415Z,85.00
2018-05-31T02:17:43.823Z,85.20
2018-05-31T02:20:12.191Z,85.50
2018-05-31T02:22:40.611Z,85.50
2018-05-31T02:25:08.223Z,85.40
2018-05-31T02:27:35.841Z,85.50
2018-05-31T02:30:03.472Z,85.50
2018-05-31T02:32:31.886Z,85.20
2018-05-31T02:34:59.495Z,85.20
2018-05-31T02:37:27.134Z,85.20
2018-05-31T02:39:54.740Z,85.40
2018-05-31T02:42:22.350Z,85.90
2018-05-31T02:44:50.008Z,85.60
2018-05-31T02:47:17.636Z,85.60
2018-05-31T02:49:45.255Z,85.60
2018-05-31T02:52:12.890Z,85.70
2018-05-31T02:54:41.264Z,86.10
2018-05-31T02:57:09.647Z,86.10
2018-05-31T02:59:38.087Z,86.20
2018-05-31T03:02:05.714Z,86.20
2018-05-31T03:04:34.098Z,87.00
2018-05-31T03:07:01.756Z,87.00
2018-05-31T03:09:30.145Z,86.90
2018-05-31T03:11:58.534Z,86.90
2018-05-31T03:14:26.209Z,86.90
2018-05-31T03:16:53.814Z,87.30
2018-05-31T03:19:21.437Z,87.40
2018-05-31T03:21:49.107Z,87.60
2018-05-31T03:24:16.713Z,87.50
2018-05-31T03:26:44.349Z,87.60
2018-05-31T03:29:12.001Z,87.50
2018-05-31T03:31:39.642Z,87.60
2018-05-31T03:34:08.297Z,88.00
2018-05-31T03:36:37.155Z,87.90
2018-05-31T03:39:05.763Z,88.30
2018-05-31T03:41:33.381Z,88.30
2018-05-31T03:44:01.815Z,88.10
2018-05-31T03:46:29.436Z,88.10
2018-05-31T03:48:57.810Z,88.40
2018-05-31T03:51:26.237Z,88.00
2018-05-31T03:53:53.880Z,88.00
2018-05-31T03:56:21.531Z,88.20
2018-05-31T03:58:49.957Z,88.00
2018-05-31T04:01:18.416Z,87.90
2018-05-31T04:03:46.063Z,87.80
2018-05-31T04:06:14.506Z,88.10
2018-05-31T04:08:42.127Z,88.90
2018-05-31T04:11:10.504Z,88.10
2018-05-31T04:13:39.223Z,88.00
2018-05-31T04:16:06.853Z,88.80
2018-05-31T04:18:34.504Z,88.30
2018-05-31T04:21:02.920Z,88.60
2018-05-31T04:23:31.297Z,90.10
2018-05-31T04:25:59.682Z,89.20
2018-05-31T04:28:28.115Z,88.80
2018-05-31T04:30:55.753Z,88.80
2018-05-31T04:33:23.381Z,88.70
2018-05-31T04:35:51.831Z,89.00
2018-05-31T04:38:19.457Z,89.00
2018-05-31T04:40:47.079Z,90.00
2018-05-31T04:43:15.514Z,91.10
2018-05-31T04:45:43.137Z,91.10
2018-05-31T04:48:11.527Z,92.20
2018-05-31T04:50:39.168Z,92.20
2018-05-31T04:53:06.804Z,92.40
2018-05-31T04:55:34.431Z,92.50
2018-05-31T04:58:02.868Z,92.40
2018-05-31T05:00:30.497Z,92.40
2018-05-31T05:02:58.126Z,92.40
2018-05-31T05:05:25.773Z,92.30
2018-05-31T05:07:53.397Z,92.30
2018-05-31T05:10:21.037Z,92.30
2018-05-31T05:12:48.691Z,92.50
2018-05-31T05:15:16.314Z,92.40
2018-05-31T05:17:43.950Z,92.40
2018-05-31T05:20:11.646Z,92.30
2018-05-31T05:22:39.270Z,92.20
2018-05-31T05:25:07.653Z,92.10
2018-05-31T05:27:36.075Z,92.20
2018-05-31T05:30:03.693Z,92.20
2018-05-31T05:32:31.326Z,92.10
2018-05-31T05:34:58.997Z,92.20
2018-05-31T05:37:26.616Z,91.90
2018-05-31T05:39:55.007Z,91.60
2018-05-31T05:42:22.678Z,91.50
2018-05-31T05:44:50.304Z,91.30
2018-05-31T05:47:17.918Z,91.40
2018-05-31T05:49:45.599Z,91.00
2018-05-31T05:52:13.231Z,91.10
2018-05-31T05:54:40.848Z,91.10
2018-05-31T05:57:08.501Z,91.00
2018-05-31T05:59:36.107Z,90.70
2018-05-31T06:02:03.703Z,90.90
2018-05-31T06:04:32.114Z,90.10
2018-05-31T06:06:59.734Z,90.10
2018-05-31T06:09:27.363Z,90.30
2018-05-31T06:11:54.996Z,90.40
2018-05-31T06:14:22.614Z,90.40
2018-05-31T06:16:51.001Z,90.30
2018-05-31T06:19:18.642Z,90.30
2018-05-31T06:21:46.278Z,89.10
2018-05-31T06:24:13.898Z,89.30
2018-05-31T06:26:41.586Z,89.80
2018-05-31T06:29:09.222Z,89.70
2018-05-31T06:31:36.833Z,89.00
2018-05-31T06:34:04.488Z,87.80
2018-05-31T06:36:32.100Z,88.40
2018-05-31T06:38:59.694Z,88.70
2018-05-31T06:41:27.326Z,88.40
2018-05-31T06:43:54.932Z,87.80
2018-05-31T06:46:22.574Z,85.90
2018-05-31T06:48:50.220Z,86.30
2018-05-31T06:51:17.834Z,85.30
2018-05-31T06:53:45.446Z,85.30
2018-05-31T06:56:13.085Z,84.70
2018-05-31T06:58:41.450Z,82.90
2018-05-31T07:01:08.900Z,82.90
2018-05-31T07:03:36.543Z,83.40
2018-05-31T07:06:04.145Z,82.40
2018-05-31T07:08:31.779Z,81.40
2018-05-31T07:10:59.406Z,80.60
2018-05-31T07:13:27.025Z,80.50
2018-05-31T07:15:54.683Z,80.50
2018-05-31T07:18:22.306Z,82.30
2018-05-31T07:20:49.906Z,79.90
2018-05-31T07:23:17.512Z,79.00
2018-05-31T07:25:45.906Z,77.70
2018-05-31T07:28:16.322Z,74.70
2018-05-31T07:30:44.693Z,74.10
2018-05-31T07:33:12.322Z,74.20
2018-05-31T07:35:39.951Z,74.90
2018-05-31T07:38:08.305Z,76.70
2018-05-31T07:40:38.389Z,76.70
2018-05-31T07:43:10.247Z,77.20
2018-05-31T07:45:41.700Z,76.40
2018-05-31T07:48:11.570Z,74.40
2018-05-31T07:50:41.701Z,75.50
2018-05-31T07:53:14.088Z,75.50
2018-05-31T07:55:44.084Z,76.60
2018-05-31T07:58:15.019Z,73.50
2018-05-31T08:00:45.692Z,73.50
2018-05-31T08:03:14.653Z,76.40
2018-05-31T08:05:48.705Z,73.90
2018-05-31T08:08:18.629Z,73.90
2018-05-31T08:10:54.893Z,74.00
2018-05-31T08:13:24.398Z,73.00
2018-05-31T08:15:52.051Z,76.10
2018-05-31T08:18:20.184Z,73.60
2018-05-31T08:20:47.783Z,73.20
2018-05-31T08:23:18.823Z,73.80
2018-05-31T08:25:53.344Z,73.70
2018-05-31T08:28:27.534Z,72.60
2018-05-31T08:30:58.055Z,72.60
2018-05-31T08:33:35.756Z,71.90
2018-05-31T08:36:04.801Z,72.10
2018-05-31T08:38:32.669Z,73.00
2018-05-31T08:41:01.877Z,72.30
2018-05-31T08:43:30.467Z,72.20
2018-05-31T08:45:58.290Z,70.60
2018-05-31T08:48:27.839Z,70.30
2018-05-31T08:50:57.692Z,69.30
2018-05-31T08:53:25.319Z,68.70
2018-05-31T08:55:55.056Z,68.90
2018-05-31T08:58:27.508Z,67.00
2018-05-31T09:00:57.174Z,65.70
2018-05-31T09:03:25.712Z,65.20
2018-05-31T09:05:53.491Z,66.00
2018-05-31T09:08:21.105Z,65.30
2018-05-31T09:10:48.763Z,64.70
2018-05-31T09:13:16.380Z,65.50
2018-05-31T09:15:43.997Z,64.60
2018-05-31T09:18:11.651Z,64.90
2018-05-31T09:20:39.241Z,63.20
2018-05-31T09:23:06.848Z,64.10
2018-05-31T09:25:34.506Z,64.70
2018-05-31T09:28:02.099Z,65.60
2018-05-31T09:30:29.733Z,64.30
2018-05-31T09:32:58.124Z,62.50
2018-05-31T09:35:25.719Z,61.70
2018-05-31T09:37:53.331Z,62.90
2018-05-31T09:40:21.749Z,63.50
2018-05-31T09:42:49.357Z,63.60
2018-05-31T09:45:17.031Z,63.80
2018-05-31T09:47:44.666Z,62.50
2018-05-31T09:50:12.278Z,62.50
2018-05-31T09:52:41.561Z,68.70
2018-05-31T09:55:09.190Z,68.70
2018-05-31T09:57:36.792Z,62.50
2018-05-31T10:00:04.390Z,60.60
2018-05-31T10:02:32.839Z,61.80
2018-05-31T10:05:00.497Z,61.80
2018-05-31T10:07:28.091Z,64.10
2018-05-31T10:09:55.732Z,65.20
2018-05-31T10:12:23.328Z,62.30
2018-05-31T10:14:51.741Z,62.70
2018-05-31T10:17:19.381Z,62.70
2018-05-31T10:19:47.765Z,64.00
2018-05-31T10:22:16.130Z,63.70
2018-05-31T10:24:43.771Z,63.70
2018-05-31T10:27:11.686Z,64.10
2018-05-31T10:29:40.039Z,63.60
2018-05-31T10:32:07.659Z,62.80
2018-05-31T10:34:35.300Z,62.80
2018-05-31T10:37:03.664Z,61.50
2018-05-31T10:39:31.314Z,61.40
2018-05-31T10:41:58.952Z,63.20
2018-05-31T10:44:26.549Z,61.20
2018-05-31T10:46:54.187Z,60.50
2018-05-31T10:49:21.865Z,60.30
2018-05-31T10:51:49.458Z,58.70
2018-05-31T10:54:17.120Z,58.40
2018-05-31T10:56:44.712Z,60.70
2018-05-31T10:59:12.342Z,57.70
2018-05-31T11:01:39.972Z,61.20
2018-05-31T11:04:07.900Z,57.30
2018-05-31T11:06:36.286Z,58.80
2018-05-31T11:09:05.633Z,58.00
2018-05-31T11:11:33.245Z,58.60
2018-05-31T11:14:01.619Z,56.30
2018-05-31T11:16:29.250Z,56.20
2018-05-31T11:18:56.907Z,56.00
2018-05-31T11:21:24.654Z,54.40
2018-05-31T11:23:52.569Z,51.60
2018-05-31T11:26:20.916Z,53.70
2018-05-31T11:28:48.573Z,53.00
2018-05-31T11:31:16.268Z,55.60
2018-05-31T11:33:47.434Z,55.40
2018-05-31T11:36:15.045Z,56.60
2018-05-31T11:38:43.455Z,54.20
2018-05-31T11:41:11.074Z,54.10
2018-05-31T11:43:38.669Z,48.80
2018-05-31T11:46:06.318Z,49.70
2018-05-31T11:48:34.695Z,51.70
2018-05-31T11:51:02.291Z,51.70
2018-05-31T11:53:29.989Z,51.40
2018-05-31T11:55:57.601Z,50.90
2018-05-31T11:58:25.977Z,52.60
2018-05-31T12:00:53.627Z,52.60
2018-05-31T12:03:21.241Z,52.10
2018-05-31T12:05:48.846Z,53.10
2018-05-31T12:08:16.542Z,51.10
2018-05-31T12:10:44.180Z,52.40
2018-05-31T12:13:11.800Z,51.80
2018-05-31T12:15:39.500Z,54.80
2018-05-31T12:18:07.109Z,51.80
2018-05-31T12:20:34.772Z,49.90
2018-05-31T12:23:02.415Z,50.00
2018-05-31T12:25:30.053Z,50.10
2018-05-31T12:27:57.636Z,51.20
2018-05-31T12:30:25.262Z,50.50
2018-05-31T12:32:52.880Z,49.10
2018-05-31T12:35:20.489Z,50.20
2018-05-31T12:37:48.225Z,50.90
2018-05-31T12:40:16.619Z,50.30
2018-05-31T12:42:44.208Z,50.20
2018-05-31T12:45:11.819Z,51.80
2018-05-31T12:47:39.418Z,52.00
2018-05-31T12:50:07.779Z,52.60
2018-05-31T12:52:35.429Z,52.60
2018-05-31T12:55:03.018Z,53.10
2018-05-31T12:57:30.629Z,52.90
2018-05-31T12:59:58.746Z,52.60
2018-05-31T13:02:26.384Z,52.00
2018-05-31T13:04:53.970Z,51.70
2018-05-31T13:07:21.648Z,52.90
2018-05-31T13:09:49.275Z,52.70
2018-05-31T13:12:16.878Z,53.60
2018-05-31T13:14:44.490Z,52.70
2018-05-31T13:17:12.073Z,53.80
2018-05-31T13:19:39.662Z,54.70
2018-05-31T13:22:07.421Z,55.70
2018-05-31T13:24:35.386Z,56.10
2018-05-31T13:27:03.103Z,56.30
2018-05-31T13:29:31.531Z,57.40
2018-05-31T13:31:59.146Z,57.40
2018-05-31T13:34:26.856Z,57.90
2018-05-31T13:36:54.500Z,57.50
2018-05-31T13:39:23.618Z,57.90
2018-05-31T13:41:51.213Z,57.90
2018-05-31T13:44:18.842Z,58.30
2018-05-31T13:46:47.172Z,59.00
2018-05-31T13:49:15.830Z,59.70
2018-05-31T13:51:43.592Z,59.80
2018-05-31T13:54:12.719Z,59.90
2018-05-31T13:56:40.373Z,60.20
2018-05-31T13:59:08.004Z,60.30
2018-05-31T14:01:35.611Z,60.60
2018-05-31T14:04:03.308Z,60.30
2018-05-31T14:06:31.506Z,60.60
2018-05-31T14:08:59.890Z,61.70
2018-05-31T14:11:28.254Z,62.70
2018-05-31T14:13:55.921Z,62.70
2018-05-31T14:16:23.519Z,62.60
2018-05-31T14:18:51.133Z,63.00
2018-05-31T14:21:18.760Z,63.10
2018-05-31T14:23:46.371Z,63.50
2018-05-31T14:26:13.961Z,63.10
2018-05-31T14:28:42.452Z,63.60
2018-05-31T14:31:10.820Z,63.70
2018-05-31T14:33:38.427Z,63.80
2018-05-31T14:36:06.048Z,63.90
2018-05-31T14:38:33.644Z,64.20
2018-05-31T14:41:01.258Z,63.90
2018-05-31T14:43:28.898Z,63.60
2018-05-31T14:45:56.634Z,64.20
2018-05-31T14:48:25.021Z,64.40
2018-05-31T14:50:53.414Z,65.00
2018-05-31T14:53:21.011Z,65.00
2018-05-31T14:55:48.846Z,65.00
2018-05-31T14:58:16.480Z,64.80
2018-05-31T15:00:44.088Z,65.10
2018-05-31T15:03:11.675Z,65.90
2018-05-31T15:05:39.298Z,65.50
2018-05-31T15:08:07.698Z,64.90
2018-05-31T15:10:35.331Z,64.90
2018-05-31T15:13:03.035Z,64.90
2018-05-31T15:15:30.634Z,65.20
2018-05-31T15:17:58.233Z,65.30
2018-05-31T15:20:26.632Z,61.70
2018-05-31T15:22:54.267Z,61.60
2018-05-31T15:25:21.859Z,61.50
2018-05-31T15:27:50.277Z,61.00
2018-05-31T15:30:17.983Z,61.00
2018-05-31T15:32:45.580Z,60.80
2018-05-31T15:35:13.962Z,61.20
2018-05-31T15:37:42.314Z,61.20
2018-05-31T15:40:09.920Z,61.20
2018-05-31T15:42:37.538Z,60.10
2018-05-31T15:45:05.118Z,60.70
2018-05-31T15:47:32.692Z,60.40
2018-05-31T15:50:01.079Z,59.20
2018-05-31T15:52:29.424Z,59.20
2018-05-31T15:54:57.004Z,59.20
2018-05-31T15:57:24.770Z,59.00
2018-05-31T15:59:52.358Z,58.70
2018-05-31T16:02:20.715Z,58.70
2018-05-31T16:04:48.353Z,58.70
2018-05-31T16:07:16.144Z,58.10
2018-05-31T16:09:43.743Z,58.60
2018-05-31T16:12:12.134Z,58.70
2018-05-31T16:14:40.488Z,58.90
2018-05-31T16:17:08.075Z,58.90
2018-05-31T16:19:36.484Z,58.50
2018-05-31T16:22:04.064Z,58.60
2018-05-31T16:24:31.643Z,58.50
2018-05-31T16:26:59.255Z,59.10
2018-05-31T16:29:27.602Z,58.80
2018-05-31T16:31:55.203Z,58.80
2018-05-31T16:34:23.591Z,58.30
2018-05-31T16:36:51.182Z,58.30
2018-05-31T16:39:18.794Z,59.40
2018-05-31T16:41:46.411Z,59.00
2018-05-31T16:44:13.996Z,58.70
2018-05-31T16:46:41.683Z,59.20
2018-05-31T16:49:09.299Z,58.80
2018-05-31T16:51:36.895Z,59.00
2018-05-31T16:54:04.503Z,59.00
2018-05-31T16:56:32.908Z,59.40
2018-05-31T16:59:00.502Z,59.40
2018-05-31T17:01:28.101Z,59.80
2018-05-31T17:03:55.731Z,59.50
2018-05-31T17:06:23.379Z,60.00
2018-05-31T17:08:50.963Z,60.60
2018-05-31T17:11:18.590Z,60.00
2018-05-31T17:13:46.182Z,60.30
2018-05-31T17:16:13.798Z,60.20
2018-05-31T17:18:41.435Z,60.30
2018-05-31T17:21:09.018Z,60.40
2018-05-31T17:23:36.628Z,61.70
2018-05-31T17:26:04.658Z,62.90
2018-05-31T17:28:32.251Z,63.20
2018-05-31T17:30:59.895Z,62.60
2018-05-31T17:33:27.528Z,62.40
2018-05-31T17:35:55.135Z,63.10
2018-05-31T17:38:23.504Z,63.40
2018-05-31T17:40:51.118Z,63.40
2018-05-31T17:43:18.716Z,63.50
2018-05-31T17:45:46.322Z,63.80
2018-05-31T17:48:14.752Z,64.40
2018-05-31T17:50:42.348Z,64.40
2018-05-31T17:53:09.943Z,64.10
2018-05-31T17:55:38.337Z,63.90
2018-05-31T17:58:06.086Z,63.90
2018-05-31T18:00:34.490Z,64.10
2018-05-31T18:03:02.126Z,64.20
2018-05-31T18:05:30.479Z,64.50
2018-05-31T18:07:58.149Z,64.30
2018-05-31T18:10:25.790Z,64.20
2018-05-31T18:12:53.419Z,64.60
2018-05-31T18:15:21.773Z,65.30
2018-05-31T18:17:50.361Z,65.00
2018-05-31T18:20:17.983Z,65.00
2018-05-31T18:22:45.583Z,65.60
2018-05-31T18:25:13.350Z,65.80
2018-05-31T18:27:40.968Z,65.00
2018-05-31T18:30:08.590Z,66.20
2018-05-31T18:32:36.223Z,66.70
2018-05-31T18:35:04.844Z,67.40
2018-05-31T18:37:32.535Z,67.80
2018-05-31T18:40:01.747Z,68.40
2018-05-31T18:42:29.420Z,68.30
2018-05-31T18:44:57.065Z,69.10
2018-05-31T18:47:24.769Z,70.10
2018-05-31T18:49:52.417Z,69.10
2018-05-31T18:52:20.774Z,68.70
2018-05-31T18:54:48.445Z,68.70
2018-05-31T18:57:16.045Z,68.70
2018-05-31T18:59:43.699Z,69.10
2018-05-31T19:02:12.140Z,69.20
2018-05-31T19:04:39.743Z,69.20
2018-05-31T19:07:08.113Z,69.80
2018-05-31T19:09:36.593Z,69.80
2018-05-31T19:12:04.196Z,70.00
2018-05-31T19:14:31.853Z,70.40
2018-05-31T19:17:00.487Z,70.70
2018-05-31T19:19:33.667Z,71.20
2018-05-31T19:22:01.406Z,71.50
2018-05-31T19:24:34.669Z,71.80
2018-05-31T19:27:02.426Z,71.90
2018-05-31T19:29:30.051Z,71.90
2018-05-31T19:31:57.694Z,72.20
2018-05-31T19:34:26.967Z,72.90
2018-05-31T19:37:00.128Z,72.90
2018-05-31T19:39:27.848Z,73.10
2018-05-31T19:41:56.279Z,73.80
2018-05-31T19:44:29.944Z,73.80
2018-05-31T19:46:57.724Z,73.80
2018-05-31T19:49:25.352Z,73.80
2018-05-31T19:51:59.496Z,73.80
2018-05-31T19:54:27.079Z,73.80
2018-05-31T19:56:54.676Z,73.90
2018-05-31T19:59:27.970Z,73.90
2018-05-31T20:02:01.088Z,74.20
2018-05-31T20:04:29.496Z,75.10
2018-05-31T20:06:57.434Z,75.00
2018-05-31T20:09:25.034Z,75.20
2018-05-31T20:11:52.687Z,75.50
2018-05-31T20:14:20.341Z,75.50
2018-05-31T20:16:48.760Z,76.30
2018-05-31T20:19:16.484Z,76.20
2018-05-31T20:21:44.082Z,76.30
2018-05-31T20:24:11.675Z,76.20
2018-05-31T20:26:39.339Z,76.50
2018-05-31T20:29:06.940Z,76.70
2018-05-31T20:31:34.549Z,76.80
2018-05-31T20:34:02.207Z,77.10
2018-05-31T20:36:29.805Z,77.20
2018-05-31T20:38:57.395Z,78.20
2018-05-31T20:41:25.356Z,79.20
2018-05-31T20:43:52.959Z,78.80
2018-05-31T20:46:21.311Z,78.70
2018-05-31T20:48:48.931Z,78.70
2018-05-31T20:51:16.531Z,78.70
2018-05-31T20:53:44.139Z,78.70
2018-05-31T20:56:12.535Z,78.70
2018-05-31T20:58:40.904Z,79.20
2018-05-31T21:01:08.499Z,79.10
2018-05-31T21:03:36.803Z,79.20
2018-05-31T21:06:04.420Z,79.10
2018-05-31T21:08:32.773Z,81.60
2018-05-31T21:11:00.397Z,81.50
2018-05-31T21:13:28.003Z,80.80
2018-05-31T21:15:55.588Z,80.80
2018-05-31T21:18:23.991Z,80.70
2018-05-31T21:20:52.349Z,81.00
2018-05-31T21:23:19.941Z,81.00
2018-05-31T21:25:47.583Z,81.40
2018-05-31T21:28:17.417Z,82.40
2018-05-31T21:30:45.883Z,81.80
2018-05-31T21:33:13.514Z,81.80
2018-05-31T21:35:41.230Z,83.40
2018-05-31T21:38:08.735Z,83.20
2018-05-31T21:40:36.365Z,82.50
2018-05-31T21:43:04.750Z,82.30
2018-05-31T21:45:32.366Z,82.20
2018-05-31T21:48:00.017Z,82.00
2018-05-31T21:50:27.620Z,82.00
2018-05-31T21:52:55.214Z,82.20
2018-05-31T21:55:22.859Z,82.00
2018-05-31T21:57:50.463Z,82.30
2018-05-31T22:00:29.776Z,82.50
2018-05-31T22:02:58.154Z,85.30
2018-05-31T22:05:26.514Z,86.00
2018-05-31T22:07:54.205Z,85.90
2018-05-31T22:10:22.571Z,85.00
2018-05-31T22:12:50.965Z,84.80
2018-05-31T22:15:19.375Z,84.60
2018-05-31T22:17:47.014Z,84.40
2018-05-31T22:20:15.367Z,84.40
2018-05-31T22:22:43.024Z,84.40
2018-05-31T22:25:10.692Z,84.40
2018-05-31T22:27:38.306Z,84.40
2018-05-31T22:30:06.900Z,84.40
2018-05-31T22:32:34.520Z,84.40
2018-05-31T22:35:02.133Z,84.40
2018-05-31T22:37:29.757Z,85.30
2018-05-31T22:39:57.371Z,85.10
2018-05-31T22:42:24.987Z,85.20
2018-05-31T22:44:52.638Z,85.40
2018-05-31T22:47:20.236Z,85.60
2018-05-31T22:49:47.837Z,86.20
2018-05-31T22:52:15.487Z,86.00
2018-05-31T22:54:43.121Z,86.20
2018-05-31T22:57:10.735Z,86.00
2018-05-31T22:59:38.395Z,86.20
2018-05-31T23:02:06.007Z,86.40
2018-05-31T23:04:33.610Z,86.40
2018-05-31T23:07:02.008Z,86.60
2018-05-31T23:09:29.615Z,86.60
2018-05-31T23:11:57.211Z,87.00
2018-05-31T23:14:25.639Z,86.50
2018-05-31T23:16:53.245Z,86.40
2018-05-31T23:19:20.908Z,86.30
2018-05-31T23:21:48.544Z,88.10
2018-05-31T23:24:16.169Z,86.60
2018-05-31T23:26:44.535Z,90.20
2018-05-31T23:29:12.983Z,90.60
2018-05-31T23:31:40.609Z,90.60
2018-05-31T23:34:08.234Z,90.60
2018-05-31T23:36:35.865Z,90.70
2018-05-31T23:39:03.470Z,91.40
2018-05-31T23:41:31.072Z,91.70
2018-05-31T23:43:58.722Z,91.90
2018-05-31T23:46:27.094Z,90.80
2018-05-31T23:48:54.733Z,90.80
2018-05-31T23:51:22.410Z,90.50
2018-05-31T23:53:50.032Z,90.90
2018-05-31T23:56:17.652Z,91.90
2018-05-31T23:58:44.830Z,91.70
